Time;durP1;ratioP1;P1;durP2;ratioP2;P2;SDS_P1;SDS_P2;PMS_P1;PMS_P2;Temp;Humidity;BMP_temperature;BMP_pressure;BME280_temperature;BME280_humidity;BME280_pressure;Samples;Min_cycle;Max_cycle;Signal;HPM_P1;HPM_P2
2021/12/12 00:00:36;;;;;;;32.25;17.67;;;4.90;98.70;;;;;;5136034;27;37352;-55
2021/12/12 00:03:14;;;;;;;31.35;19.58;;;4.90;98.60;;;;;;5137589;27;39404;-55
2021/12/12 00:05:47;;;;;;;35.45;18.98;;;4.90;98.70;;;;;;5136769;27;36340;-55
2021/12/12 00:08:17;;;;;;;39.97;19.27;;;4.90;98.60;;;;;;5138301;27;38743;-55
2021/12/12 00:10:49;;;;;;;32.30;18.15;;;4.90;98.70;;;;;;5136983;27;39038;-56
2021/12/12 00:13:20;;;;;;;35.40;18.08;;;4.90;98.70;;;;;;5137850;27;37524;-54
2021/12/12 00:15:48;;;;;;;42.33;20.40;;;4.90;98.70;;;;;;5137591;27;37449;-53
2021/12/12 00:18:15;;;;;;;34.50;18.85;;;4.90;98.70;;;;;;5136247;27;37842;-54
2021/12/12 00:20:45;;;;;;;36.35;18.75;;;4.90;98.60;;;;;;5137094;27;37763;-54
2021/12/12 00:23:13;;;;;;;31.45;18.73;;;5.00;98.50;;;;;;5136324;27;37733;-53
2021/12/12 00:25:44;;;;;;;29.85;18.02;;;4.90;98.60;;;;;;5135132;27;37059;-54
2021/12/12 00:28:15;;;;;;;32.55;18.38;;;5.00;98.60;;;;;;5135251;27;36113;-54
2021/12/12 00:30:43;;;;;;;32.47;19.38;;;5.00;98.50;;;;;;5136155;27;36616;-54
2021/12/12 00:33:11;;;;;;;33.30;19.85;;;5.00;98.50;;;;;;5134240;27;36529;-54
2021/12/12 00:35:39;;;;;;;44.97;20.20;;;5.10;98.40;;;;;;5136289;27;39840;-55
2021/12/12 00:38:14;;;;;;;37.22;20.08;;;5.10;98.40;;;;;;5136733;27;38003;-55
2021/12/12 00:40:45;;;;;;;37.13;19.60;;;5.00;98.40;;;;;;5136860;27;37265;-55
2021/12/12 00:43:15;;;;;;;35.97;18.10;;;5.00;98.40;;;;;;5136848;27;37775;-55
2021/12/12 00:45:43;;;;;;;29.38;17.73;;;5.10;98.40;;;;;;5136600;27;38122;-55
2021/12/12 00:48:11;;;;;;;32.08;18.45;;;5.00;98.40;;;;;;5136536;27;36460;-55
2021/12/12 00:50:42;;;;;;;35.25;19.15;;;5.10;98.40;;;;;;5137486;27;38617;-55
2021/12/12 00:53:13;;;;;;;34.40;18.70;;;5.10;98.40;;;;;;5136587;27;38498;-55
2021/12/12 00:55:41;;;;;;;35.13;19.17;;;5.10;98.40;;;;;;5134721;27;38550;-54
2021/12/12 00:58:11;;;;;;;40.22;19.52;;;5.10;98.40;;;;;;5135884;27;37864;-55
2021/12/12 01:00:47;;;;;;;34.75;19.08;;;5.10;98.40;;;;;;5136593;27;38302;-54
2021/12/12 01:03:15;;;;;;;38.67;19.50;;;5.10;98.30;;;;;;5136350;27;36508;-55
2021/12/12 01:05:46;;;;;;;37.38;19.42;;;5.10;98.30;;;;;;5136173;27;36335;-55
2021/12/12 01:08:15;;;;;;;39.45;20.85;;;5.20;98.30;;;;;;5140081;27;38491;-55
2021/12/12 01:10:47;;;;;;;41.50;19.38;;;5.20;98.30;;;;;;5141100;27;38027;-55
2021/12/12 01:13:15;;;;;;;44.72;20.17;;;5.10;98.30;;;;;;5140724;27;37707;-55
2021/12/12 01:15:47;;;;;;;45.20;21.58;;;5.20;98.40;;;;;;5139967;27;39075;-55
2021/12/12 01:18:19;;;;;;;33.00;18.77;;;5.10;98.50;;;;;;5140968;27;35548;-55
2021/12/12 01:20:51;;;;;;;32.57;19.63;;;5.20;98.40;;;;;;5141141;27;37564;-55
2021/12/12 01:23:23;;;;;;;33.00;19.42;;;5.20;98.50;;;;;;5139910;27;40730;-55
2021/12/12 01:25:51;;;;;;;33.08;18.88;;;5.20;98.30;;;;;;5139796;27;37805;-63
2021/12/12 01:28:22;;;;;;;38.58;20.15;;;5.20;98.40;;;;;;5141338;27;36785;-63
2021/12/12 01:30:53;;;;;;;43.47;21.67;;;5.20;98.40;;;;;;5139200;27;38461;-63
2021/12/12 01:33:32;;;;;;;41.08;21.77;;;5.20;98.40;;;;;;5140575;27;38789;-64
2021/12/12 01:36:01;;;;;;;34.47;19.80;;;5.20;98.40;;;;;;5138108;27;37593;-55
2021/12/12 01:41:15;;;;;;;40.55;21.33;;;5.20;98.50;;;;;;5140096;27;38477;-55
2021/12/12 01:43:46;;;;;;;43.75;21.92;;;5.20;98.70;;;;;;5140539;27;37695;-55
2021/12/12 01:46:19;;;;;;;40.85;20.85;;;5.20;98.70;;;;;;5139663;27;38822;-55
2021/12/12 01:48:51;;;;;;;46.00;21.70;;;5.20;98.60;;;;;;5139456;27;35413;-63
2021/12/12 01:51:19;;;;;;;36.83;21.55;;;5.10;98.90;;;;;;5139352;27;37771;-63
2021/12/12 01:53:52;;;;;;;38.25;20.02;;;5.10;98.80;;;;;;5139865;27;37902;-55
2021/12/12 01:56:23;;;;;;;41.78;22.25;;;5.10;98.90;;;;;;5137639;27;38164;-55
2021/12/12 01:58:54;;;;;;;40.45;21.35;;;5.10;99.20;;;;;;5140601;27;35542;-55
2021/12/12 02:01:24;;;;;;;44.13;22.02;;;5.20;99.00;;;;;;5139473;27;36310;-63
2021/12/12 02:03:55;;;;;;;51.70;24.20;;;5.20;99.20;;;;;;5140713;27;37903;-62
2021/12/12 02:06:24;;;;;;;42.22;21.38;;;5.20;99.20;;;;;;5139021;27;36251;-63
2021/12/12 02:08:54;;;;;;;41.55;20.73;;;5.10;99.30;;;;;;5139590;27;37272;-64
2021/12/12 02:11:26;;;;;;;43.00;21.48;;;5.20;99.20;;;;;;5138528;27;39218;-63
2021/12/12 02:13:58;;;;;;;39.92;19.15;;;5.20;99.30;;;;;;5139837;27;38364;-63
2021/12/12 02:16:27;;;;;;;40.53;21.40;;;5.20;99.30;;;;;;5138844;27;36330;-63
2021/12/12 02:18:58;;;;;;;47.17;23.00;;;5.20;99.40;;;;;;5138410;27;36651;-64
2021/12/12 02:21:32;;;;;;;39.55;20.10;;;5.20;99.50;;;;;;5139722;27;37578;-64
2021/12/12 02:35:20;;;;;;;35.72;19.45;;;5.30;99.40;;;;;;5140707;27;39546;-63
2021/12/12 02:37:49;;;;;;;42.30;21.42;;;5.20;99.60;;;;;;5138915;27;37487;-63
2021/12/12 02:40:26;;;;;;;42.38;21.38;;;5.30;99.80;;;;;;5138987;27;36973;-55
2021/12/12 02:42:54;;;;;;;32.20;19.70;;;5.30;99.70;;;;;;5140485;27;37596;-55
2021/12/12 02:45:24;;;;;;;42.25;21.35;;;5.30;99.80;;;;;;5139795;27;37742;-55
2021/12/12 02:47:58;;;;;;;42.83;21.30;;;5.30;99.70;;;;;;5140308;27;37427;-55
2021/12/12 02:50:30;;;;;;;36.83;19.08;;;5.30;99.90;;;;;;5139928;27;36789;-64
2021/12/12 02:53:04;;;;;;;39.72;19.35;;;5.40;99.70;;;;;;5139757;27;37375;-63
2021/12/12 02:55:35;;;;;;;37.50;18.73;;;5.40;99.70;;;;;;5140256;27;38704;-63
2021/12/12 02:58:05;;;;;;;37.80;19.67;;;5.40;99.60;;;;;;5139933;27;40095;-62
2021/12/12 03:00:39;;;;;;;41.95;21.13;;;5.40;99.80;;;;;;5138208;27;38103;-63
2021/12/12 03:03:08;;;;;;;;;;;5.40;99.90;;;;;;5139293;27;37426;-64
2021/12/12 03:05:42;;;;;;;37.72;18.42;;;5.40;99.90;;;;;;5139727;27;38118;-55
2021/12/12 03:08:11;;;;;;;38.60;19.50;;;5.50;99.90;;;;;;5139624;27;38043;-55
2021/12/12 03:10:42;;;;;;;43.00;18.88;;;5.40;99.90;;;;;;5137977;27;36906;-55
2021/12/12 03:13:11;;;;;;;43.17;17.40;;;5.40;99.90;;;;;;5139692;27;38085;-55
2021/12/12 03:15:40;;;;;;;37.30;17.85;;;5.50;99.90;;;;;;5139069;27;37485;-55
2021/12/12 03:18:11;;;;;;;31.27;18.02;;;5.50;99.90;;;;;;5138771;27;37445;-55
2021/12/12 03:20:42;;;;;;;40.33;18.77;;;5.50;99.90;;;;;;5140285;27;36235;-55
2021/12/12 03:23:17;;;;;;;32.88;16.98;;;5.50;99.90;;;;;;5138864;27;37481;-55
2021/12/12 03:25:47;;;;;;;38.17;16.92;;;5.50;99.90;;;;;;5141194;27;37461;-55
2021/12/12 03:28:18;;;;;;;32.97;16.65;;;5.50;99.90;;;;;;5141718;27;38543;-55
2021/12/12 03:30:49;;;;;;;33.22;17.05;;;5.50;99.90;;;;;;5142287;27;35159;-55
2021/12/12 03:33:17;;;;;;;32.38;16.25;;;5.60;99.90;;;;;;5142249;27;39445;-56
2021/12/12 03:35:47;;;;;;;33.05;16.67;;;5.60;99.90;;;;;;5142160;27;37892;-55
2021/12/12 03:38:16;;;;;;;26.95;13.80;;;5.50;99.90;;;;;;5141236;27;37578;-63
2021/12/12 03:40:45;;;;;;;26.92;15.45;;;5.60;99.90;;;;;;5142262;27;36669;-64
2021/12/12 03:43:15;;;;;;;26.40;14.77;;;5.60;99.90;;;;;;5143027;27;38226;-63
2021/12/12 03:45:44;;;;;;;32.13;16.27;;;5.60;99.90;;;;;;5142326;27;38560;-64
2021/12/12 03:48:14;;;;;;;21.88;14.20;;;5.70;99.90;;;;;;5143062;27;38129;-64
2021/12/12 03:50:44;;;;;;;27.40;13.35;;;5.70;99.90;;;;;;5142171;27;36823;-63
2021/12/12 03:53:13;;;;;;;30.98;14.07;;;5.70;99.90;;;;;;5142639;27;38041;-55
2021/12/12 03:55:41;;;;;;;27.52;13.32;;;5.70;99.90;;;;;;5141732;27;38994;-55
2021/12/12 03:58:09;;;;;;;28.60;14.43;;;5.70;99.90;;;;;;5140697;27;39034;-55
2021/12/12 04:00:42;;;;;;;31.02;12.77;;;5.70;99.90;;;;;;5141987;27;35465;-64
2021/12/12 04:03:10;;;;;;;21.65;11.43;;;5.80;99.90;;;;;;5142487;27;38018;-63
2021/12/12 04:05:39;;;;;;;26.58;12.75;;;5.70;99.90;;;;;;5140964;27;38670;-63
2021/12/12 04:08:06;;;;;;;19.40;11.27;;;5.70;99.90;;;;;;5141611;27;37373;-63
2021/12/12 04:10:34;;;;;;;21.33;11.75;;;5.70;99.90;;;;;;5141693;27;36679;-55
2021/12/12 04:13:02;;;;;;;22.95;12.02;;;5.70;99.90;;;;;;5141143;27;38092;-55
2021/12/12 04:15:29;;;;;;;20.85;10.80;;;5.70;99.90;;;;;;5142760;27;37892;-55
2021/12/12 04:17:58;;;;;;;19.67;11.40;;;5.70;99.90;;;;;;5142539;27;37701;-55
2021/12/12 04:20:29;;;;;;;17.88;9.18;;;5.70;99.90;;;;;;5142081;27;37047;-55
2021/12/12 04:22:57;;;;;;;17.30;10.40;;;5.70;99.90;;;;;;5141825;27;38107;-56
2021/12/12 04:25:24;;;;;;;25.70;11.68;;;5.70;99.90;;;;;;5141888;27;37394;-55
2021/12/12 04:27:53;;;;;;;19.70;11.52;;;5.70;99.90;;;;;;5142581;27;37152;-55
2021/12/12 04:30:23;;;;;;;19.98;11.15;;;5.70;99.90;;;;;;5140873;27;36703;-56
2021/12/12 04:32:52;;;;;;;16.80;11.20;;;5.70;99.90;;;;;;5141509;27;37544;-55
2021/12/12 04:35:25;;;;;;;18.92;11.30;;;5.70;99.90;;;;;;5141353;27;38465;-55
2021/12/12 04:37:54;;;;;;;16.88;9.38;;;5.70;99.90;;;;;;5140088;27;37182;-55
2021/12/12 04:40:23;;;;;;;15.93;9.60;;;5.70;99.90;;;;;;5143164;27;35506;-55
2021/12/12 04:42:53;;;;;;;14.07;9.38;;;5.70;99.90;;;;;;5141233;27;38062;-55
2021/12/12 04:45:33;;;;;;;17.55;10.10;;;5.80;99.90;;;;;;5140528;27;37385;-55
2021/12/12 04:50:58;;;;;;;18.30;9.65;;;5.80;99.90;;;;;;5142071;27;36885;-63
2021/12/12 04:53:30;;;;;;;18.05;9.25;;;5.80;99.90;;;;;;5141344;27;39772;-64
2021/12/12 04:56:06;;;;;;;19.05;9.93;;;5.80;99.90;;;;;;5141956;27;36357;-63
2021/12/12 04:58:39;;;;;;;17.60;9.50;;;5.80;99.90;;;;;;5140941;27;37292;-55
2021/12/12 05:01:13;;;;;;;14.27;9.00;;;5.80;99.90;;;;;;5140713;27;36989;-55
2021/12/12 05:03:49;;;;;;;13.70;8.43;;;5.70;99.90;;;;;;5141583;27;37627;-56
2021/12/12 05:06:26;;;;;;;12.77;8.05;;;5.80;99.90;;;;;;5139592;27;38749;-55
2021/12/12 05:08:59;;;;;;;14.15;7.80;;;5.80;99.90;;;;;;5141520;27;37257;-55
2021/12/12 05:11:34;;;;;;;11.97;7.90;;;5.80;99.90;;;;;;5140601;27;36721;-55
2021/12/12 05:14:08;;;;;;;12.93;7.43;;;5.80;99.90;;;;;;5141204;27;37561;-55
2021/12/12 05:16:40;;;;;;;13.63;8.00;;;5.80;99.90;;;;;;5141517;27;39161;-56
2021/12/12 05:19:12;;;;;;;13.48;7.05;;;5.80;99.90;;;;;;5141475;27;37458;-55
2021/12/12 05:21:46;;;;;;;11.60;7.53;;;5.80;99.90;;;;;;5141553;27;36877;-55
2021/12/12 05:24:15;;;;;;;12.63;7.50;;;5.80;99.90;;;;;;5141180;27;38165;-55
2021/12/12 05:26:48;;;;;;;14.30;7.55;;;5.90;99.90;;;;;;5142758;27;37275;-64
2021/12/12 05:29:21;;;;;;;11.80;7.60;;;5.90;99.90;;;;;;5141157;27;37232;-64
2021/12/12 05:31:50;;;;;;;12.85;7.63;;;5.90;99.90;;;;;;5140411;27;37613;-64
2021/12/12 05:34:20;;;;;;;14.10;8.35;;;5.90;99.90;;;;;;5141373;27;36464;-63
2021/12/12 05:36:51;;;;;;;13.10;8.15;;;5.90;99.90;;;;;;5140063;27;37933;-63
2021/12/12 05:39:19;;;;;;;11.18;7.22;;;6.30;99.90;;;;;;5140772;27;37445;-63
2021/12/12 05:41:47;;;;;;;11.38;8.02;;;6.00;99.90;;;;;;5140590;27;35382;-63
2021/12/12 05:44:16;;;;;;;11.80;7.60;;;6.00;99.90;;;;;;5140770;27;37360;-63
2021/12/12 05:46:43;;;;;;;11.90;8.38;;;6.00;99.90;;;;;;5139555;27;36457;-63
2021/12/12 05:49:11;;;;;;;12.98;8.63;;;6.00;99.90;;;;;;5140954;27;37929;-63
2021/12/12 05:51:39;;;;;;;17.40;9.27;;;6.00;99.90;;;;;;5140856;27;39268;-63
2021/12/12 05:54:08;;;;;;;11.13;7.85;;;6.00;99.90;;;;;;5140383;27;38647;-63
2021/12/12 05:56:38;;;;;;;14.65;8.57;;;6.00;99.90;;;;;;5140237;27;37627;-63
2021/12/12 05:59:06;;;;;;;15.05;9.68;;;6.00;99.90;;;;;;5140150;27;40187;-55
2021/12/12 06:01:34;;;;;;;13.57;9.02;;;6.00;99.90;;;;;;5139506;27;36383;-55
2021/12/12 06:04:02;;;;;;;13.68;9.38;;;6.00;99.90;;;;;;5139670;27;37148;-55
2021/12/12 06:06:35;;;;;;;13.48;8.93;;;6.10;99.90;;;;;;5140262;27;38562;-55
2021/12/12 06:09:05;;;;;;;15.52;9.82;;;6.00;99.90;;;;;;5140452;27;37759;-63
2021/12/12 06:11:37;;;;;;;18.42;10.48;;;6.10;99.90;;;;;;5138954;27;36543;-63
2021/12/12 06:14:07;;;;;;;15.50;10.18;;;6.10;99.90;;;;;;5140886;27;38443;-63
2021/12/12 06:16:37;;;;;;;13.85;9.77;;;6.10;99.90;;;;;;5139672;27;37844;-63
2021/12/12 06:19:08;;;;;;;15.45;10.32;;;6.10;99.90;;;;;;5141278;27;35174;-63
2021/12/12 06:21:36;;;;;;;13.95;9.55;;;6.20;99.90;;;;;;5140438;27;36796;-55
2021/12/12 06:24:05;;;;;;;16.38;9.63;;;6.20;99.90;;;;;;5140093;27;37516;-55
2021/12/12 06:26:35;;;;;;;15.98;10.32;;;6.20;99.90;;;;;;5140632;27;43100;-55
2021/12/12 06:29:02;;;;;;;13.38;9.48;;;6.20;99.90;;;;;;5138651;27;36209;-63
2021/12/12 06:31:30;;;;;;;14.40;10.02;;;6.30;99.90;;;;;;5142059;27;36164;-63
2021/12/12 06:33:57;;;;;;;13.63;9.70;;;6.30;99.90;;;;;;5139887;27;37805;-63
2021/12/12 06:36:26;;;;;;;13.07;9.43;;;6.30;99.90;;;;;;5138914;27;38973;-63
2021/12/12 06:38:55;;;;;;;15.95;10.70;;;6.30;99.90;;;;;;5140669;27;36246;-63
2021/12/12 06:41:23;;;;;;;13.63;9.15;;;6.30;99.90;;;;;;5139358;27;36291;-55
2021/12/12 06:43:53;;;;;;;13.32;9.77;;;6.30;99.90;;;;;;5140836;27;36453;-54
2021/12/12 06:46:21;;;;;;;13.02;9.43;;;6.30;99.90;;;;;;5139964;27;39555;-63
2021/12/12 06:48:50;;;;;;;17.42;10.15;;;6.40;99.90;;;;;;5139630;27;38213;-63
2021/12/12 06:51:17;;;;;;;15.48;10.18;;;6.40;99.90;;;;;;5139398;27;37347;-63
2021/12/12 06:53:47;;;;;;;14.93;10.27;;;6.50;99.90;;;;;;5139428;27;37535;-63
2021/12/12 06:56:17;;;;;;;15.20;10.57;;;6.50;99.90;;;;;;5136439;27;38784;-64
2021/12/12 06:58:46;;;;;;;16.60;10.25;;;6.50;99.90;;;;;;5140717;27;38231;-55
2021/12/12 07:01:17;;;;;;;15.40;10.27;;;6.50;99.90;;;;;;5140801;27;36551;-55
2021/12/12 07:03:45;;;;;;;16.52;11.20;;;6.50;99.90;;;;;;5143479;27;38975;-55
2021/12/12 07:06:17;;;;;;;16.35;11.07;;;6.60;99.90;;;;;;5142521;27;36567;-55
2021/12/12 07:08:44;;;;;;;14.70;11.07;;;6.60;99.90;;;;;;5142347;27;38117;-55
2021/12/12 07:11:15;;;;;;;15.45;11.48;;;6.60;99.90;;;;;;5140885;27;36288;-55
2021/12/12 07:13:42;;;;;;;16.38;11.02;;;6.60;99.90;;;;;;5141801;27;37959;-63
2021/12/12 07:16:10;;;;;;;15.35;10.55;;;6.60;99.90;;;;;;5141805;27;37590;-63
2021/12/12 07:18:39;;;;;;;17.38;11.80;;;6.60;99.90;;;;;;5142287;27;37540;-63
2021/12/12 07:21:09;;;;;;;17.13;11.55;;;6.60;99.90;;;;;;5141823;27;36601;-55
2021/12/12 07:23:38;;;;;;;16.48;11.75;;;6.60;99.90;;;;;;5140206;27;38444;-63
2021/12/12 07:26:07;;;;;;;16.45;11.60;;;6.60;99.90;;;;;;5142009;27;38308;-63
2021/12/12 07:28:37;;;;;;;16.70;11.20;;;6.60;99.90;;;;;;5141287;27;36389;-63
2021/12/12 07:31:07;;;;;;;18.40;12.02;;;6.60;99.90;;;;;;5140448;27;36503;-63
2021/12/12 07:33:35;;;;;;;16.48;11.40;;;6.70;99.90;;;;;;5142519;27;37088;-63
2021/12/12 07:36:07;;;;;;;16.63;11.38;;;6.70;99.90;;;;;;5143816;27;37770;-64
2021/12/12 07:38:35;;;;;;;16.23;11.20;;;6.70;99.90;;;;;;5143021;27;37923;-63
2021/12/12 07:41:05;;;;;;;20.00;12.82;;;6.70;99.90;;;;;;5140583;27;36869;-63
2021/12/12 07:43:34;;;;;;;19.95;12.40;;;6.70;99.90;;;;;;5143060;27;37431;-63
2021/12/12 07:46:03;;;;;;;20.42;13.43;;;6.70;99.90;;;;;;5142373;27;37991;-63
2021/12/12 07:48:31;;;;;;;20.33;13.07;;;6.70;99.90;;;;;;5143289;27;39744;-63
2021/12/12 07:51:01;;;;;;;20.13;13.30;;;6.70;99.90;;;;;;5142705;27;37755;-63
2021/12/12 07:53:30;;;;;;;19.02;12.32;;;6.80;99.90;;;;;;5141915;27;37156;-56
2021/12/12 07:55:58;;;;;;;20.70;13.32;;;6.80;99.90;;;;;;5140944;27;36808;-56
2021/12/12 07:58:27;;;;;;;19.15;13.10;;;6.80;99.90;;;;;;5141172;27;38016;-56
2021/12/12 08:00:57;;;;;;;16.92;11.82;;;6.80;99.90;;;;;;5140951;27;36514;-56
2021/12/12 08:03:26;;;;;;;21.30;13.20;;;6.90;99.90;;;;;;5140785;27;38032;-56
2021/12/12 08:05:54;;;;;;;20.52;13.38;;;6.90;99.90;;;;;;5139245;27;38355;-56
2021/12/12 08:08:25;;;;;;;22.13;14.85;;;6.90;99.90;;;;;;5141622;27;37815;-57
2021/12/12 08:10:56;;;;;;;22.23;13.93;;;7.00;99.90;;;;;;5139844;27;36744;-56
2021/12/12 08:13:23;;;;;;;21.02;13.55;;;6.90;99.90;;;;;;5142015;27;36183;-56
2021/12/12 08:15:51;;;;;;;24.45;13.98;;;7.00;99.90;;;;;;5140998;27;37901;-56
2021/12/12 08:18:20;;;;;;;22.00;13.07;;;7.00;99.90;;;;;;5138413;27;37812;-56
2021/12/12 08:20:49;;;;;;;17.73;13.18;;;7.00;99.90;;;;;;5141624;27;37837;-56
2021/12/12 08:23:18;;;;;;;24.60;14.25;;;7.00;99.90;;;;;;5139952;27;39860;-56
2021/12/12 08:25:48;;;;;;;22.05;13.82;;;7.00;99.90;;;;;;5141346;27;37868;-56
2021/12/12 08:28:18;;;;;;;25.88;14.68;;;7.00;99.90;;;;;;5139058;27;38425;-56
2021/12/12 08:30:47;;;;;;;25.02;14.82;;;7.10;99.90;;;;;;5139815;27;35588;-56
2021/12/12 08:33:16;;;;;;;26.27;15.23;;;7.10;99.90;;;;;;5139414;27;37412;-56
2021/12/12 08:35:45;;;;;;;24.02;14.43;;;7.10;99.90;;;;;;5139953;27;36231;-56
2021/12/12 08:38:14;;;;;;;23.13;14.68;;;7.10;99.90;;;;;;5139414;27;37647;-62
2021/12/12 08:40:45;;;;;;;25.55;14.50;;;7.10;99.90;;;;;;5139888;27;36518;-62
2021/12/12 08:43:15;;;;;;;22.73;14.23;;;7.10;99.90;;;;;;5138594;27;37541;-63
2021/12/12 08:45:46;;;;;;;27.30;15.68;;;7.20;99.90;;;;;;5139367;27;37894;-62
2021/12/12 08:48:16;;;;;;;23.75;15.70;;;7.20;99.90;;;;;;5138951;27;36951;-62
2021/12/12 08:50:45;;;;;;;28.73;15.52;;;7.30;99.90;;;;;;5139235;27;35488;-62
2021/12/12 08:53:13;;;;;;;26.65;16.58;;;7.20;99.90;;;;;;5137498;27;38550;-62
2021/12/12 08:55:44;;;;;;;28.88;16.95;;;7.30;99.90;;;;;;5138896;27;36615;-63
2021/12/12 08:58:17;;;;;;;28.58;15.43;;;7.30;99.90;;;;;;5139513;27;38045;-63
2021/12/12 09:00:51;;;;;;;27.45;16.10;;;7.30;99.90;;;;;;5139048;27;37537;-63
2021/12/12 09:03:21;;;;;;;29.30;16.70;;;7.30;99.90;;;;;;5139309;27;36350;-63
2021/12/12 09:05:48;;;;;;;31.33;16.50;;;7.40;99.90;;;;;;5137485;27;39514;-63
2021/12/12 09:08:31;;;;;;;32.80;17.38;;;7.40;99.90;;;;;;5138735;27;37471;-63
2021/12/12 09:11:05;;;;;;;30.05;16.35;;;7.50;99.90;;;;;;5138077;27;35547;-62
2021/12/12 09:13:38;;;;;;;35.72;17.88;;;7.50;99.90;;;;;;5139655;27;38571;-63
2021/12/12 09:16:08;;;;;;;;;;;7.50;99.90;;;;;;5138979;27;37932;-63
2021/12/12 09:18:40;;;;;;;36.25;17.90;;;7.60;99.90;;;;;;5140260;27;36707;-56
2021/12/12 09:21:11;;;;;;;39.28;18.15;;;7.60;99.90;;;;;;5139570;27;36480;-56
2021/12/12 09:23:44;;;;;;;37.15;17.75;;;7.60;99.90;;;;;;5138791;27;37694;-56
2021/12/12 09:26:15;;;;;;;39.28;18.55;;;7.60;99.90;;;;;;5139826;27;39224;-56
2021/12/12 09:28:48;;;;;;;38.15;18.40;;;7.60;99.90;;;;;;5140010;27;37396;-63
2021/12/12 09:31:25;;;;;;;38.10;18.70;;;7.70;99.90;;;;;;5139284;27;36305;-62
2021/12/12 09:33:56;;;;;;;48.22;20.67;;;7.70;99.90;;;;;;5139135;27;37619;-62
2021/12/12 09:36:30;;;;;;;45.47;20.55;;;7.80;99.90;;;;;;5138069;27;39280;-62
2021/12/12 09:39:03;;;;;;;46.22;21.67;;;7.80;99.90;;;;;;5139474;27;37364;-62
2021/12/12 09:42:06;;;;;;;47.63;20.30;;;7.90;99.90;;;;;;5139304;27;36156;-62
2021/12/12 09:45:08;;;;;;;51.33;21.55;;;7.90;99.90;;;;;;5132903;27;38811;-62
2021/12/12 09:51:14;;;;;;;49.38;22.55;;;7.90;99.90;;;;;;5123959;27;38257;-62
2021/12/12 09:51:19;;;;;;;56.95;23.35;;;8.00;99.90;;;;;;5139297;27;38213;-63
2021/12/12 09:54:13;;;;;;;55.30;22.35;;;8.00;99.90;;;;;;5139408;27;35591;-62
2021/12/12 09:56:48;;;;;;;50.55;21.40;;;8.10;99.90;;;;;;5139434;27;36995;-56
2021/12/12 09:59:31;;;;;;;55.67;23.02;;;8.10;99.90;;;;;;5139695;27;37815;-56
2021/12/12 10:02:15;;;;;;;49.15;22.10;;;8.10;99.90;;;;;;5138440;27;39329;-56
2021/12/12 10:04:53;;;;;;;48.20;22.50;;;8.10;99.90;;;;;;5139566;27;36455;-56
2021/12/12 10:07:35;;;;;;;42.33;20.20;;;8.20;99.90;;;;;;5138443;27;36426;-56
2021/12/12 10:10:10;;;;;;;58.00;22.50;;;8.20;99.90;;;;;;5138707;27;37440;-56
2021/12/12 10:12:44;;;;;;;44.95;21.85;;;8.30;99.90;;;;;;5138664;27;38526;-56
2021/12/12 10:15:18;;;;;;;49.00;20.90;;;8.30;99.90;;;;;;5138235;27;37765;-63
2021/12/12 10:17:48;;;;;;;48.80;22.20;;;8.30;99.90;;;;;;5137954;27;36204;-62
2021/12/12 10:20:23;;;;;;;44.85;20.73;;;8.40;99.90;;;;;;5139752;27;37909;-62
2021/12/12 10:23:06;;;;;;;42.03;20.10;;;8.50;99.90;;;;;;5140074;27;37647;-56
2021/12/12 10:25:39;;;;;;;47.00;20.98;;;8.50;99.90;;;;;;5139939;27;37976;-56
2021/12/12 10:28:15;;;;;;;47.22;20.73;;;8.50;99.90;;;;;;5138209;27;37697;-56
2021/12/12 10:30:49;;;;;;;41.03;19.42;;;8.60;99.90;;;;;;5139982;27;37808;-56
2021/12/12 10:33:20;;;;;;;40.20;18.65;;;8.50;99.90;;;;;;5138412;27;37243;-56
2021/12/12 10:35:55;;;;;;;41.22;19.73;;;8.60;99.90;;;;;;5139916;27;38203;-56
2021/12/12 10:38:27;;;;;;;37.92;19.05;;;8.70;99.90;;;;;;5138346;27;37403;-56
2021/12/12 10:40:59;;;;;;;43.25;18.50;;;8.70;99.90;;;;;;5139178;27;38266;-56
2021/12/12 10:43:35;;;;;;;44.25;19.52;;;8.70;99.90;;;;;;5139303;27;37672;-56
2021/12/12 10:46:11;;;;;;;47.13;20.05;;;8.80;99.90;;;;;;5137859;27;37987;-56
2021/12/12 10:48:44;;;;;;;44.33;20.67;;;8.80;99.90;;;;;;5139647;27;37478;-56
2021/12/12 10:51:17;;;;;;;37.67;18.63;;;8.80;99.90;;;;;;5139887;27;36323;-56
2021/12/12 10:53:51;;;;;;;44.40;19.35;;;8.90;99.90;;;;;;5137770;27;37006;-56
2021/12/12 10:56:27;;;;;;;40.25;17.92;;;8.90;99.90;;;;;;5134218;27;36645;-56
2021/12/12 10:58:58;;;;;;;36.67;18.38;;;8.90;99.90;;;;;;5133869;27;40094;-56
2021/12/12 11:01:28;;;;;;;50.15;19.25;;;8.90;99.90;;;;;;5135415;27;38069;-56
2021/12/12 11:04:03;;;;;;;45.28;19.65;;;9.00;99.90;;;;;;5135069;27;38674;-56
2021/12/12 11:06:37;;;;;;;35.72;16.70;;;9.00;99.90;;;;;;5135349;27;35555;-56
2021/12/12 11:09:08;;;;;;;42.75;18.98;;;9.00;99.90;;;;;;5135072;27;37926;-56
2021/12/12 11:11:45;;;;;;;30.90;17.02;;;9.10;99.90;;;;;;5133477;27;38193;-56
2021/12/12 11:14:18;;;;;;;33.05;16.55;;;9.10;99.90;;;;;;5135357;27;39140;-56
2021/12/12 11:16:52;;;;;;;36.80;15.23;;;9.10;99.90;;;;;;5135535;27;36980;-56
2021/12/12 11:19:29;;;;;;;38.22;16.88;;;9.10;99.90;;;;;;5135570;27;37863;-56
2021/12/12 11:22:02;;;;;;;36.92;17.95;;;9.20;99.90;;;;;;5134851;27;36591;-56
2021/12/12 11:24:34;;;;;;;29.77;15.15;;;9.20;99.90;;;;;;5135333;27;38261;-56
2021/12/12 11:27:04;;;;;;;27.13;14.27;;;9.20;99.90;;;;;;5135711;27;36300;-56
2021/12/12 11:29:37;;;;;;;31.52;15.77;;;9.30;99.90;;;;;;5135467;27;37372;-56
2021/12/12 11:32:07;;;;;;;30.10;15.43;;;9.30;99.90;;;;;;5136111;27;37631;-56
2021/12/12 11:34:36;;;;;;;29.92;15.90;;;9.40;99.90;;;;;;5135915;27;37438;-56
2021/12/12 11:37:13;;;;;;;30.25;15.15;;;9.40;99.90;;;;;;5133795;27;37605;-56
2021/12/12 11:39:47;;;;;;;34.03;15.93;;;9.40;99.90;;;;;;5134545;27;37319;-56
2021/12/12 11:42:21;;;;;;;29.52;14.52;;;9.40;99.90;;;;;;5133868;27;37709;-56
2021/12/12 11:44:58;;;;;;;30.80;14.07;;;9.50;99.90;;;;;;5135659;27;36930;-56
2021/12/12 11:47:45;;;;;;;31.27;15.43;;;9.50;99.90;;;;;;5138335;27;38685;-56
2021/12/12 11:50:21;;;;;;;33.70;14.75;;;9.50;99.90;;;;;;5138251;27;37751;-56
2021/12/12 11:52:56;;;;;;;26.92;13.75;;;9.50;99.90;;;;;;5138826;27;38965;-56
2021/12/12 11:55:27;;;;;;;27.55;13.93;;;9.50;99.90;;;;;;5137966;27;36341;-56
2021/12/12 11:58:00;;;;;;;26.40;13.60;;;9.50;99.90;;;;;;5137843;27;37716;-56
2021/12/12 12:00:33;;;;;;;28.30;13.35;;;9.50;99.90;;;;;;5138012;27;37792;-57
2021/12/12 12:03:16;;;;;;;27.90;13.17;;;9.60;99.90;;;;;;5139058;27;36337;-56
2021/12/12 12:05:52;;;;;;;27.40;14.00;;;9.60;99.90;;;;;;5139154;27;37900;-56
2021/12/12 12:08:25;;;;;;;23.17;12.43;;;9.70;99.90;;;;;;5137199;27;36750;-56
2021/12/12 12:11:06;;;;;;;27.77;12.48;;;9.70;99.90;;;;;;5138513;27;40080;-56
2021/12/12 12:13:47;;;;;;;27.08;13.38;;;9.70;99.90;;;;;;5138721;27;37475;-56
2021/12/12 12:16:28;;;;;;;23.63;12.38;;;9.70;99.90;;;;;;5137809;27;36089;-56
2021/12/12 12:19:05;;;;;;;22.13;11.55;;;9.70;99.90;;;;;;5136614;27;37292;-56
2021/12/12 12:21:38;;;;;;;27.25;12.95;;;9.80;99.90;;;;;;5137750;27;39250;-56
2021/12/12 12:24:13;;;;;;;;;;;9.80;99.90;;;;;;5138339;27;38541;-56
2021/12/12 12:26:55;;;;;;;21.25;11.13;;;9.80;99.90;;;;;;5138155;27;38316;-56
2021/12/12 12:30:06;;;;;;;22.45;12.57;;;9.80;99.90;;;;;;5138779;27;36186;-56
2021/12/12 12:33:13;;;;;;;21.40;11.63;;;9.80;99.90;;;;;;5059353;27;37533;-56
2021/12/12 12:36:25;;;;;;;22.88;12.05;;;9.80;99.90;;;;;;5138109;27;36403;-56
2021/12/12 12:39:44;;;;;;;21.50;11.98;;;9.80;99.90;;;;;;5136690;27;37495;-56
2021/12/12 12:42:51;;;;;;;22.13;11.93;;;9.80;99.90;;;;;;5135591;27;36676;-56
2021/12/12 12:45:56;;;;;;;21.17;11.40;;;9.90;99.90;;;;;;5137171;27;38107;-56
2021/12/12 12:49:01;;;;;;;22.60;11.77;;;9.80;99.90;;;;;;5136551;27;37869;-56
2021/12/12 12:51:44;;;;;;;21.88;11.45;;;9.90;99.90;;;;;;5137341;27;38613;-56
2021/12/12 12:54:28;;;;;;;20.33;10.88;;;9.80;99.90;;;;;;5136685;27;36646;-56
2021/12/12 12:57:06;;;;;;;;;;;9.90;99.90;;;;;;5135326;27;37444;-56
2021/12/12 12:59:54;;;;;;;20.25;10.32;;;9.90;99.90;;;;;;5135528;27;37776;-56
2021/12/12 13:02:26;;;;;;;35.92;12.30;;;9.90;99.90;;;;;;5137106;27;37422;-56
2021/12/12 13:05:39;;;;;;;21.38;10.48;;;9.80;99.90;;;;;;5136452;27;36205;-56
2021/12/12 13:08:46;;;;;;;19.60;10.65;;;9.90;99.90;;;;;;5127922;27;38881;-56
2021/12/12 13:11:21;;;;;;;17.92;10.10;;;9.80;99.90;;;;;;5136812;27;37730;-56
2021/12/12 13:13:58;;;;;;;16.33;9.68;;;9.90;99.90;;;;;;5134846;27;37685;-56
2021/12/12 13:16:33;;;;;;;17.23;10.23;;;9.90;99.90;;;;;;5136734;27;36630;-56
2021/12/12 13:19:05;;;;;;;21.45;10.98;;;9.90;99.90;;;;;;5136867;27;37712;-56
2021/12/12 13:21:41;;;;;;;18.45;10.27;;;9.90;99.90;;;;;;5136689;27;38189;-56
2021/12/12 13:24:17;;;;;;;21.90;10.68;;;9.90;99.90;;;;;;5136199;27;37066;-56
2021/12/12 13:27:00;;;;;;;18.05;10.57;;;9.90;99.90;;;;;;5137928;27;36204;-56